Time;durP1;ratioP1;P1;durP2;ratioP2;P2;SDS_P1;SDS_P2;PMS_P1;PMS_P2;Temp;Humidity;BMP_temperature;BMP_pressure;BME280_temperature;BME280_humidity;BME280_pressure;Samples;Min_cycle;Max_cycle;Signal;HPM_P1;HPM_P2
2022/08/12 00:44:09;;;;;;;4.60;2.13;;;18.90;99.90;;;;;;5061418;28;20040;-73
2022/08/12 00:46:46;;;;;;;5.80;3.25;;;19.00;99.90;;;;;;5058298;28;20471;-73
2022/08/12 00:49:12;;;;;;;3.20;2.03;;;19.20;99.90;;;;;;5057992;28;20029;-73
2022/08/12 00:54:23;;;;;;;5.07;2.33;;;19.40;99.90;;;;;;5067529;28;21044;-73
2022/08/12 00:56:50;;;;;;;3.30;2.17;;;19.40;99.90;;;;;;5061959;28;20025;-73
2022/08/12 00:59:17;;;;;;;4.55;2.00;;;19.30;99.90;;;;;;5060162;28;20040;-73
2022/08/12 01:01:45;;;;;;;3.63;2.13;;;19.00;99.90;;;;;;5068150;28;20052;-73
2022/08/12 01:12:32;;;;;;;6.57;2.45;;;19.10;99.90;;;;;;5063333;28;20066;-73
2022/08/12 01:14:59;;;;;;;3.78;2.13;;;19.00;99.90;;;;;;5062291;28;20372;-73
2022/08/12 01:17:25;;;;;;;3.65;2.30;;;18.90;99.90;;;;;;5066087;28;20064;-73
2022/08/12 01:19:54;;;;;;;4.03;1.95;;;18.80;99.90;;;;;;5068995;28;20442;-73
2022/08/12 01:23:10;;;;;;;6.20;2.67;;;18.70;99.90;;;;;;5057744;28;20037;-73
2022/08/12 01:25:39;;;;;;;5.20;2.47;;;18.40;99.90;;;;;;5042838;28;20075;-73
2022/08/12 01:28:09;;;;;;;7.53;2.75;;;18.40;99.90;;;;;;5067030;28;20371;-73
2022/08/12 01:30:37;;;;;;;6.15;2.67;;;18.50;99.90;;;;;;5064483;28;20047;-73
2022/08/12 01:33:05;;;;;;;5.95;2.55;;;18.60;99.90;;;;;;5058056;28;20045;-73
2022/08/12 01:35:33;;;;;;;3.65;2.20;;;18.60;99.90;;;;;;5060620;28;20040;-73
2022/08/12 01:38:03;;;;;;;5.15;2.47;;;18.80;99.90;;;;;;5062259;28;20067;-73
2022/08/12 01:40:32;;;;;;;3.83;2.05;;;18.70;99.90;;;;;;5061600;28;20045;-73
2022/08/12 01:43:08;;;;;;;6.07;2.60;;;18.80;99.90;;;;;;5063690;28;20127;-73
2022/08/12 01:45:38;;;;;;;4.57;2.65;;;18.70;99.90;;;;;;5063281;28;20395;-73
2022/08/12 01:48:12;;;;;;;5.07;2.58;;;18.70;99.90;;;;;;5063267;28;20495;-73
2022/08/12 01:51:01;;;;;;;4.00;2.25;;;18.80;99.90;;;;;;5065650;28;20363;-73
2022/08/12 01:53:45;;;;;;;5.57;2.72;;;19.00;99.90;;;;;;5064814;28;20447;-73
2022/08/12 01:56:13;;;;;;;5.32;2.35;;;19.00;99.90;;;;;;5061900;28;20123;-73
2022/08/12 02:01:38;;;;;;;4.88;2.42;;;18.90;99.90;;;;;;5064352;28;20484;-74
2022/08/12 02:13:36;;;;;;;3.50;1.98;;;19.10;99.90;;;;;;5065230;28;20112;-74
2022/08/12 02:16:12;;;;;;;4.78;2.05;;;19.10;99.90;;;;;;5061839;28;20052;-73
2022/08/12 02:19:01;;;;;;;5.43;2.38;;;19.10;99.90;;;;;;5063365;28;20397;-74
2022/08/12 02:21:40;;;;;;;5.47;2.20;;;19.00;99.90;;;;;;5068047;28;20040;-74
2022/08/12 02:24:10;;;;;;;3.95;2.20;;;19.00;99.90;;;;;;5062173;28;20119;-74
2022/08/12 02:26:39;;;;;;;4.63;2.35;;;18.90;99.90;;;;;;5039006;28;20385;-74
2022/08/12 02:29:06;;;;;;;4.72;2.75;;;18.80;99.90;;;;;;5065195;28;20478;-73
2022/08/12 02:31:33;;;;;;;3.80;2.10;;;18.90;99.90;;;;;;5063103;28;20031;-73
2022/08/12 02:34:01;;;;;;;6.25;2.30;;;19.10;99.90;;;;;;5057943;28;20037;-74
2022/08/12 02:36:28;;;;;;;3.83;2.60;;;19.10;99.90;;;;;;5068109;28;20115;-74
2022/08/12 02:38:54;;;;;;;4.65;2.15;;;19.10;99.90;;;;;;5063706;28;20036;-74
2022/08/12 02:41:24;;;;;;;5.97;2.20;;;19.20;99.90;;;;;;5062185;28;20497;-74
2022/08/12 02:44:00;;;;;;;3.47;2.05;;;19.20;99.90;;;;;;5063210;28;20106;-73
2022/08/12 02:46:29;;;;;;;5.97;2.35;;;19.30;99.90;;;;;;5065118;28;20475;-74
2022/08/12 02:49:24;;;;;;;4.93;2.35;;;19.40;99.90;;;;;;5056201;28;20044;-74
2022/08/12 02:51:50;;;;;;;5.43;2.40;;;19.30;99.90;;;;;;5054824;28;20123;-74
2022/08/12 02:54:16;;;;;;;5.78;2.75;;;19.30;99.90;;;;;;5061828;28;20037;-74
2022/08/12 02:56:43;;;;;;;4.43;2.30;;;19.40;99.90;;;;;;5064089;28;20477;-73
2022/08/12 02:59:15;;;;;;;7.32;2.40;;;19.50;99.90;;;;;;5067143;28;20031;-74
2022/08/12 03:01:58;;;;;;;6.68;2.53;;;19.50;99.90;;;;;;5060848;28;20041;-73
2022/08/12 03:04:31;;;;;;;5.72;2.25;;;19.50;99.90;;;;;;5058592;28;20032;-73
2022/08/12 03:07:28;;;;;;;4.03;2.20;;;19.30;99.90;;;;;;5064768;28;20025;-73
2022/08/12 03:10:09;;;;;;;4.63;2.22;;;19.20;99.90;;;;;;5059791;28;20045;-73
2022/08/12 03:12:38;;;;;;;4.47;2.20;;;19.20;99.90;;;;;;5058717;28;20040;-73
2022/08/12 03:15:08;;;;;;;4.68;2.45;;;19.00;99.90;;;;;;5049818;28;20076;-73
2022/08/12 03:17:43;;;;;;;6.57;2.67;;;19.00;99.90;;;;;;5060652;28;20052;-73
2022/08/12 03:20:10;;;;;;;5.32;2.72;;;19.00;99.90;;;;;;5053856;28;20047;-72
2022/08/12 03:22:41;;;;;;;5.97;2.50;;;18.80;99.90;;;;;;5048428;28;20032;-73
2022/08/12 03:25:30;;;;;;;4.15;2.40;;;18.70;99.90;;;;;;5050128;28;20082;-73
2022/08/12 03:27:57;;;;;;;3.92;2.53;;;18.70;99.90;;;;;;5055903;28;20024;-73
2022/08/12 03:30:24;;;;;;;4.25;2.35;;;18.60;99.90;;;;;;5060504;28;20028;-73
2022/08/12 03:32:51;;;;;;;9.65;3.25;;;18.70;99.90;;;;;;5058205;28;20060;-73
2022/08/12 03:35:24;;;;;;;5.00;2.15;;;18.70;99.90;;;;;;5065241;28;20028;-73
2022/08/12 03:37:50;;;;;;;3.53;2.33;;;18.50;99.90;;;;;;5057195;28;20036;-73
2022/08/12 03:41:33;;;;;;;6.63;2.67;;;18.60;99.90;;;;;;5058784;28;20036;-73
2022/08/12 04:02:23;;;;;;;;;;;18.70;99.90;;;;;;5056016;28;20473;-72
2022/08/12 04:04:49;;;;;;;4.10;2.40;;;18.60;99.90;;;;;;5047795;28;19913;-73
2022/08/12 04:07:16;;;;;;;4.18;2.28;;;18.50;99.90;;;;;;5056438;28;20125;-73
2022/08/12 04:09:45;;;;;;;6.50;2.80;;;18.40;99.90;;;;;;5059268;28;20049;-73
2022/08/12 04:14:57;;;;;;;5.85;2.63;;;18.30;99.90;;;;;;5051226;28;20083;-72
2022/08/12 04:17:26;;;;;;;3.88;2.30;;;18.30;99.90;;;;;;5055317;28;20032;-72
2022/08/12 04:19:55;;;;;;;4.75;2.53;;;18.40;99.90;;;;;;5050337;28;20029;-72
2022/08/12 04:22:24;;;;;;;5.10;2.85;;;18.80;99.90;;;;;;5054044;28;20047;-72
2022/08/12 04:24:52;;;;;;;4.22;2.13;;;19.20;99.90;;;;;;5056371;28;20462;-72
2022/08/12 04:27:18;;;;;;;5.50;2.40;;;19.20;99.90;;;;;;5049218;28;20033;-72
2022/08/12 04:29:43;;;;;;;5.40;2.50;;;19.20;99.90;;;;;;5045261;28;20039;-73
2022/08/12 04:32:10;;;;;;;6.25;2.83;;;19.10;99.90;;;;;;5056209;28;20029;-72
2022/08/12 04:34:37;;;;;;;5.35;2.63;;;19.00;99.90;;;;;;5056383;28;20029;-73
2022/08/12 04:37:03;;;;;;;5.32;2.85;;;19.00;99.90;;;;;;5057223;28;20031;-73
2022/08/12 04:39:29;;;;;;;7.13;2.97;;;18.90;99.90;;;;;;5053530;28;20044;-72
2022/08/12 04:41:58;;;;;;;5.07;2.42;;;18.90;99.90;;;;;;5054913;28;20033;-72
2022/08/12 04:44:26;;;;;;;5.40;2.05;;;18.70;99.90;;;;;;5058488;28;20068;-72
2022/08/12 04:46:53;;;;;;;6.20;3.42;;;18.30;99.90;;;;;;5052513;28;20359;-72
2022/08/12 04:49:20;;;;;;;6.28;2.95;;;18.10;99.90;;;;;;5060371;28;20467;-72
2022/08/12 04:51:46;;;;;;;5.85;2.45;;;18.20;99.90;;;;;;5054953;28;20067;-72
2022/08/12 04:54:13;;;;;;;3.78;2.20;;;18.30;99.90;;;;;;5057874;28;20033;-72
2022/08/12 04:56:40;;;;;;;4.35;2.45;;;18.80;99.90;;;;;;5058069;28;20035;-72
2022/08/12 04:59:06;;;;;;;6.05;2.83;;;19.10;99.90;;;;;;5059468;28;20181;-72
2022/08/12 05:01:32;;;;;;;5.72;2.28;;;19.20;99.90;;;;;;5056739;28;20044;-72
2022/08/12 05:03:58;;;;;;;5.45;2.83;;;19.30;99.90;;;;;;5059317;28;20029;-72
2022/08/12 05:06:25;;;;;;;4.88;2.55;;;19.40;99.90;;;;;;5057481;28;20033;-72
2022/08/12 05:08:53;;;;;;;3.83;2.03;;;19.50;99.90;;;;;;5058191;28;20123;-73
2022/08/12 05:11:23;;;;;;;3.25;2.20;;;19.50;99.90;;;;;;5059573;28;20534;-72
2022/08/12 05:13:50;;;;;;;5.22;2.30;;;19.50;99.90;;;;;;5055146;28;20085;-72
2022/08/12 05:16:16;;;;;;;3.28;2.17;;;19.40;99.90;;;;;;5055369;28;20587;-72
2022/08/12 05:18:42;;;;;;;4.40;2.20;;;19.10;99.90;;;;;;5056214;28;20032;-72
2022/08/12 05:21:08;;;;;;;5.80;2.30;;;19.20;99.90;;;;;;5056529;28;20044;-72
2022/08/12 05:23:38;;;;;;;4.43;2.45;;;19.30;99.90;;;;;;5064008;28;20356;-73
2022/08/12 05:26:05;;;;;;;5.68;2.95;;;19.40;99.90;;;;;;5060861;28;20055;-72
2022/08/12 05:28:31;;;;;;;5.90;2.30;;;19.60;99.90;;;;;;5059735;28;20032;-72
2022/08/12 05:30:57;;;;;;;6.45;2.80;;;19.60;99.90;;;;;;5063392;28;20028;-73
2022/08/12 05:33:26;;;;;;;5.38;2.45;;;19.70;99.90;;;;;;5055614;28;20055;-71
2022/08/12 05:35:52;;;;;;;6.13;2.65;;;19.80;99.90;;;;;;5054186;28;20482;-71
2022/08/12 05:41:17;;;;;;;5.35;2.75;;;19.80;99.90;;;;;;5055470;28;20141;-71
2022/08/12 05:43:48;;;;;;;4.68;2.22;;;19.60;99.90;;;;;;5059288;28;20108;-71
2022/08/12 05:46:14;;;;;;;6.53;2.58;;;19.50;99.90;;;;;;5058300;28;20025;-71
2022/08/12 05:48:40;;;;;;;6.63;2.63;;;19.50;99.90;;;;;;5053960;28;20037;-71
2022/08/12 05:51:09;;;;;;;5.30;2.60;;;19.60;99.90;;;;;;5058579;28;20409;-72
2022/08/12 05:53:35;;;;;;;3.30;2.28;;;19.70;99.90;;;;;;5062611;28;20036;-72
2022/08/12 05:56:00;;;;;;;4.03;2.47;;;19.90;99.90;;;;;;5056933;28;20021;-72
2022/08/12 05:58:27;;;;;;;4.85;2.47;;;19.90;99.90;;;;;;5061230;28;20087;-72
2022/08/12 06:00:55;;;;;;;6.97;3.17;;;19.70;99.90;;;;;;5058034;28;20112;-72
2022/08/12 06:03:21;;;;;;;7.50;3.72;;;19.70;99.90;;;;;;5065958;28;20063;-73
2022/08/12 06:05:48;;;;;;;5.03;3.17;;;19.50;99.90;;;;;;5065541;28;20059;-73
2022/08/12 06:08:17;;;;;;;6.75;3.42;;;19.70;99.90;;;;;;5061442;28;20032;-72
2022/08/12 06:10:44;;;;;;;8.40;3.53;;;19.70;99.90;;;;;;5063060;28;20657;-72
2022/08/12 06:13:13;;;;;;;5.68;3.65;;;19.70;99.90;;;;;;5062223;28;20564;-73
2022/08/12 06:15:40;;;;;;;7.65;3.67;;;19.70;99.90;;;;;;5054281;28;20075;-72
2022/08/12 06:18:07;;;;;;;6.25;3.20;;;19.90;99.90;;;;;;5061147;28;20045;-73
2022/08/12 06:20:34;;;;;;;4.88;3.72;;;20.00;99.90;;;;;;5051594;28;20045;-73
2022/08/12 06:23:00;;;;;;;5.15;3.00;;;20.10;99.90;;;;;;5060077;28;20513;-72
2022/08/12 06:25:27;;;;;;;5.20;3.45;;;20.20;99.90;;;;;;5053458;28;20371;-72
2022/08/12 06:27:54;;;;;;;4.50;2.90;;;20.40;99.90;;;;;;5062038;28;20395;-72
2022/08/12 06:30:21;;;;;;;4.47;2.75;;;20.50;99.90;;;;;;5054430;28;20039;-73
2022/08/12 06:32:48;;;;;;;5.35;3.50;;;20.60;99.90;;;;;;5046354;28;20103;-72
2022/08/12 06:35:16;;;;;;;5.93;3.72;;;20.80;99.90;;;;;;5048906;28;20029;-72
2022/08/12 06:37:51;;;;;;;5.03;3.50;;;20.70;99.90;;;;;;5056666;28;20119;-72
2022/08/12 06:42:46;;;;;;;5.00;3.63;;;21.00;99.90;;;;;;5048804;28;20151;-72
2022/08/12 06:43:04;;;;;;;5.32;3.05;;;20.60;99.90;;;;;;5057173;28;20674;-72
2022/08/12 06:45:30;;;;;;;6.05;3.50;;;20.80;99.90;;;;;;5050391;28;20104;-72
2022/08/12 06:47:57;;;;;;;6.35;3.20;;;21.00;99.90;;;;;;5059162;28;20450;-74
2022/08/12 06:50:22;;;;;;;5.38;3.50;;;21.10;99.90;;;;;;5054462;28;20032;-72
2022/08/12 06:52:49;;;;;;;6.10;3.63;;;21.20;99.90;;;;;;5052924;28;20033;-74
2022/08/12 06:55:19;;;;;;;7.22;3.60;;;21.50;99.90;;;;;;5062109;28;20028;-74
2022/08/12 06:58:00;;;;;;;9.18;3.67;;;21.50;99.90;;;;;;5057655;28;20024;-73
2022/08/12 07:00:32;;;;;;;7.10;3.35;;;21.20;99.90;;;;;;5059119;28;20111;-73
2022/08/12 07:02:59;;;;;;;10.93;4.07;;;21.20;99.90;;;;;;5041327;28;20387;-73
2022/08/12 07:05:25;;;;;;;6.72;3.42;;;21.30;99.90;;;;;;5059340;28;20043;-73
2022/08/12 07:07:54;;;;;;;6.30;3.20;;;21.30;99.90;;;;;;5040306;28;20421;-74
2022/08/12 07:10:24;;;;;;;5.95;4.22;;;21.30;99.90;;;;;;5055192;28;20055;-73
2022/08/12 07:12:53;;;;;;;6.53;3.42;;;21.90;99.90;;;;;;5057044;28;20025;-72
2022/08/12 07:15:24;;;;;;;5.43;3.47;;;22.80;99.90;;;;;;5059394;28;20533;-72
2022/08/12 07:17:57;;;;;;;5.55;3.50;;;22.30;99.90;;;;;;5052331;28;20031;-72
2022/08/12 07:20:23;;;;;;;9.10;4.28;;;22.00;99.90;;;;;;5060234;28;20100;-72
2022/08/12 07:22:49;;;;;;;7.70;3.70;;;21.80;99.90;;;;;;5058229;28;20048;-74
2022/08/12 07:25:30;;;;;;;7.07;4.15;;;21.70;99.90;;;;;;5053060;28;20498;-73
2022/08/12 07:28:00;;;;;;;7.63;3.75;;;21.70;99.90;;;;;;5058991;28;20162;-74
2022/08/12 07:30:26;;;;;;;7.15;4.50;;;22.20;99.90;;;;;;5055228;28;20028;-73
2022/08/12 07:32:52;;;;;;;6.43;3.60;;;22.60;99.90;;;;;;5054201;28;20084;-74
2022/08/12 07:35:19;;;;;;;16.80;5.38;;;22.00;99.90;;;;;;5052602;28;20021;-73
2022/08/12 07:37:46;;;;;;;11.68;3.83;;;22.00;99.90;;;;;;5049229;28;20025;-73
2022/08/12 07:40:12;;;;;;;6.53;3.70;;;22.10;99.90;;;;;;5054186;28;20117;-73
2022/08/12 07:42:42;;;;;;;6.25;3.08;;;22.30;99.90;;;;;;5056612;28;20041;-73
2022/08/12 07:45:09;;;;;;;6.80;3.95;;;22.80;99.90;;;;;;5059197;28;20672;-72
2022/08/12 07:47:35;;;;;;;5.20;2.88;;;22.60;99.90;;;;;;5057365;28;20490;-73
2022/08/12 07:50:03;;;;;;;6.88;3.20;;;22.40;99.90;;;;;;5052166;28;20036;-73
2022/08/12 07:52:29;;;;;;;9.35;4.25;;;22.20;99.90;;;;;;5055842;28;20116;-73
2022/08/12 07:54:55;;;;;;;7.18;3.25;;;22.50;99.90;;;;;;5047026;28;20033;-72
2022/08/12 07:57:21;;;;;;;6.60;3.70;;;22.60;99.90;;;;;;5061913;28;20033;-73
2022/08/12 07:59:47;;;;;;;5.35;3.20;;;22.60;99.90;;;;;;5061032;28;20421;-73
2022/08/12 08:02:13;;;;;;;6.28;3.20;;;22.60;99.90;;;;;;5052355;28;20048;-73
2022/08/12 08:04:56;;;;;;;5.85;3.30;;;22.60;99.90;;;;;;5047012;28;20028;-73
2022/08/12 08:07:28;;;;;;;6.15;3.08;;;22.60;99.90;;;;;;5049108;28;20466;-73
2022/08/12 08:09:56;;;;;;;4.07;2.40;;;22.50;99.90;;;;;;5050932;28;20137;-73
2022/08/12 08:15:11;;;;;;;6.07;2.80;;;22.70;99.60;;;;;;5055189;28;20639;-73
2022/08/12 08:17:37;;;;;;;5.22;3.08;;;22.80;99.70;;;;;;5055973;28;20033;-73
2022/08/12 08:20:09;;;;;;;4.55;3.10;;;22.70;99.90;;;;;;5059549;28;20037;-74
2022/08/12 08:22:37;;;;;;;6.82;3.35;;;22.70;99.90;;;;;;5055219;28;20139;-73
2022/08/12 08:25:08;;;;;;;5.10;3.05;;;23.00;99.90;;;;;;5053953;28;20472;-72
2022/08/12 08:27:47;;;;;;;5.03;3.15;;;22.90;99.90;;;;;;5058068;28;20128;-73
2022/08/12 08:30:15;;;;;;;7.82;4.03;;;23.10;99.90;;;;;;5052364;28;20029;-73
2022/08/12 08:32:40;;;;;;;5.78;3.45;;;23.10;99.90;;;;;;5034852;28;20084;-73
2022/08/12 08:35:09;;;;;;;8.23;3.63;;;24.80;99.00;;;;;;5055820;28;20037;-72
2022/08/12 08:37:35;;;;;;;8.73;3.90;;;26.20;97.80;;;;;;5059584;28;20051;-73
2022/08/12 08:42:35;;;;;;;7.13;4.20;;;26.90;96.80;;;;;;5059529;28;20036;-72
2022/08/12 08:42:46;;;;;;;6.95;3.20;;;27.10;96.40;;;;;;5053464;28;20045;-72
2022/08/12 08:45:12;;;;;;;7.22;3.47;;;27.20;96.60;;;;;;5050040;28;20111;-71
2022/08/12 08:47:45;;;;;;;5.35;3.10;;;27.30;96.00;;;;;;5056000;28;20074;-72
2022/08/12 08:50:14;;;;;;;10.38;4.35;;;27.00;96.60;;;;;;5054297;28;20048;-72
2022/08/12 08:52:41;;;;;;;5.93;3.58;;;26.80;96.10;;;;;;5056827;28;20060;-72
2022/08/12 08:55:15;;;;;;;5.88;3.30;;;26.30;97.40;;;;;;5060790;28;20063;-72
2022/08/12 08:57:42;;;;;;;5.55;2.90;;;25.40;98.00;;;;;;5060176;28;20080;-72
2022/08/12 09:00:15;;;;;;;4.28;2.42;;;25.30;98.20;;;;;;5060556;28;20025;-72
2022/08/12 09:02:40;;;;;;;4.18;2.78;;;25.20;97.40;;;;;;5059881;28;20041;-72
2022/08/12 09:05:07;;;;;;;4.07;2.17;;;25.30;97.90;;;;;;5061958;28;20035;-72
2022/08/12 09:07:44;;;;;;;5.07;2.70;;;25.10;97.10;;;;;;5056746;28;20029;-72
2022/08/12 09:10:11;;;;;;;6.22;2.42;;;24.80;96.70;;;;;;5061404;28;20052;-72
2022/08/12 09:15:22;;;;;;;;;;;25.10;97.70;;;;;;5051651;28;20083;-73
2022/08/12 09:17:54;;;;;;;5.07;2.40;;;25.00;97.30;;;;;;5052179;28;19909;-73
2022/08/12 09:20:29;;;;;;;6.00;2.08;;;25.20;96.40;;;;;;5062622;28;20396;-73
2022/08/12 09:22:56;;;;;;;5.10;2.35;;;25.30;97.30;;;;;;5061061;28;20045;-73
2022/08/12 09:25:26;;;;;;;3.83;2.15;;;25.30;95.90;;;;;;5057335;28;20033;-73
2022/08/12 09:27:53;;;;;;;4.07;2.13;;;25.40;96.00;;;;;;5058376;28;20191;-73
2022/08/12 09:30:20;;;;;;;3.85;2.08;;;25.50;95.70;;;;;;5062256;28;20032;-73
2022/08/12 09:32:49;;;;;;;3.60;2.08;;;25.40;93.80;;;;;;5058139;28;20024;-73
2022/08/12 09:35:26;;;;;;;3.30;1.75;;;25.60;94.10;;;;;;5056582;28;20032;-73
2022/08/12 09:37:54;;;;;;;4.95;1.80;;;25.90;94.10;;;;;;5058547;28;20062;-73
2022/08/12 09:40:21;;;;;;;4.20;1.60;;;26.30;92.90;;;;;;5061721;28;20120;-73
2022/08/12 09:45:33;;;;;;;3.97;2.00;;;26.40;91.50;;;;;;5065129;28;20039;-72
2022/08/12 09:48:02;;;;;;;8.70;2.20;;;26.50;91.90;;;;;;5059891;28;20174;-73
2022/08/12 09:50:28;;;;;;;4.07;1.65;;;26.70;92.30;;;;;;5058403;28;20504;-73
2022/08/12 09:53:15;;;;;;;4.88;1.73;;;27.20;91.50;;;;;;5059909;28;20044;-73
2022/08/12 09:55:52;;;;;;;3.03;1.42;;;27.30;90.10;;;;;;5049379;28;20114;-73
2022/08/12 09:58:27;;;;;;;3.55;1.42;;;27.30;90.80;;;;;;5059708;28;20037;-73
2022/08/12 10:01:00;;;;;;;5.95;1.80;;;27.30;89.40;;;;;;5059018;28;20078;-72
2022/08/12 10:03:33;;;;;;;3.53;1.90;;;27.20;91.00;;;;;;5065081;28;20496;-72
2022/08/12 10:06:01;;;;;;;6.35;1.63;;;27.30;92.30;;;;;;5050261;28;20033;-73
2022/08/12 10:08:31;;;;;;;4.70;2.03;;;27.40;92.10;;;;;;5057572;28;20045;-72
2022/08/12 10:13:43;;;;;;;4.38;1.80;;;26.80;92.10;;;;;;5059731;28;20085;-73
2022/08/12 10:16:26;;;;;;;4.88;1.70;;;26.90;90.80;;;;;;5060261;28;20033;-72
2022/08/12 10:19:00;;;;;;;3.13;1.60;;;27.20;90.20;;;;;;5057692;28;20070;-73
2022/08/12 10:21:37;;;;;;;2.47;1.35;;;27.00;89.60;;;;;;5052377;28;20037;-72
2022/08/12 10:24:06;;;;;;;4.70;1.40;;;27.30;88.70;;;;;;5051023;28;20375;-73
2022/08/12 10:29:37;;;;;;;3.20;1.38;;;27.50;89.90;;;;;;5057617;28;20566;-73
2022/08/12 10:32:22;;;;;;;4.82;1.40;;;27.20;87.90;;;;;;5060628;28;20118;-73
2022/08/12 10:34:51;;;;;;;3.65;1.70;;;26.70;87.70;;;;;;5055238;28;20146;-73
2022/08/12 10:37:18;;;;;;;2.45;1.25;;;26.30;88.50;;;;;;5056381;28;20375;-73
2022/08/12 10:39:45;;;;;;;4.72;1.90;;;26.30;89.30;;;;;;5062060;28;20035;-73
2022/08/12 10:45:08;;;;;;;3.22;1.70;;;26.20;89.80;;;;;;5061376;28;20131;-73
2022/08/12 10:47:35;;;;;;;5.57;2.30;;;26.40;90.60;;;;;;5058118;28;20025;-72
2022/08/12 10:50:04;;;;;;;3.63;1.70;;;26.20;91.00;;;;;;5052898;28;20056;-73
2022/08/12 10:52:30;;;;;;;3.25;1.48;;;26.40;91.20;;;;;;5059687;28;20027;-73
2022/08/12 10:54:57;;;;;;;2.60;1.60;;;26.50;90.70;;;;;;5061042;28;20103;-73
2022/08/12 10:57:25;;;;;;;3.65;2.08;;;26.70;90.30;;;;;;5047387;28;20454;-72
2022/08/12 10:59:55;;;;;;;5.28;2.10;;;26.70;90.20;;;;;;5060417;28;20170;-73
2022/08/12 11:02:24;;;;;;;4.43;1.35;;;27.20;90.20;;;;;;5066478;28;20466;-72
2022/08/12 11:04:50;;;;;;;5.47;2.05;;;27.50;89.60;;;;;;5062132;28;20093;-72
2022/08/12 11:07:16;;;;;;;3.90;1.73;;;27.20;88.40;;;;;;5055004;28;20063;-72
2022/08/12 11:09:47;;;;;;;3.55;2.03;;;27.20;88.50;;;;;;5054951;28;20071;-72
2022/08/12 11:12:13;;;;;;;3.95;1.55;;;27.00;87.50;;;;;;5060263;28;20391;-72
2022/08/12 11:14:41;;;;;;;3.47;1.70;;;27.40;89.60;;;;;;5058776;28;20028;-72
2022/08/12 11:17:12;;;;;;;4.72;1.65;;;27.60;88.30;;;;;;5055948;28;20028;-72
2022/08/12 11:19:40;;;;;;;3.15;1.50;;;27.50;88.50;;;;;;5055080;28;20397;-72
2022/08/12 11:22:07;;;;;;;5.38;1.33;;;27.10;87.20;;;;;;5053905;28;20703;-72
2022/08/12 11:24:33;;;;;;;4.80;1.67;;;27.20;88.10;;;;;;5059996;28;20047;-72
2022/08/12 11:27:01;;;;;;;4.22;2.35;;;27.20;88.20;;;;;;5049103;28;20147;-73
2022/08/12 11:29:28;;;;;;;4.57;1.70;;;27.30;87.30;;;;;;5056664;28;20033;-73
2022/08/12 11:31:54;;;;;;;5.75;2.58;;;27.80;89.10;;;;;;5053028;28;20029;-73
2022/08/12 11:34:20;;;;;;;8.00;1.65;;;27.80;88.00;;;;;;5055160;28;20039;-73
2022/08/12 11:36:53;;;;;;;4.30;1.70;;;27.50;87.10;;;;;;5054236;28;20025;-73
2022/08/12 11:39:19;;;;;;;2.92;1.40;;;27.40;85.80;;;;;;5051707;28;20361;-73
2022/08/12 11:41:45;;;;;;;5.72;1.65;;;27.80;85.60;;;;;;5059204;28;20459;-73
2022/08/12 11:44:11;;;;;;;3.45;1.17;;;27.80;85.80;;;;;;5056823;28;20036;-73
2022/08/12 11:46:38;;;;;;;4.72;1.58;;;27.80;85.80;;;;;;5056697;28;20140;-72
2022/08/12 11:49:05;;;;;;;3.85;1.50;;;27.40;85.50;;;;;;5055610;28;20438;-73
2022/08/12 11:51:31;;;;;;;3.47;1.85;;;27.20;87.40;;;;;;5050903;28;20237;-72
2022/08/12 11:53:57;;;;;;;4.93;1.70;;;27.20;86.80;;;;;;5056408;28;20029;-72
2022/08/12 11:56:23;;;;;;;4.28;1.70;;;27.20;86.10;;;;;;5059942;28;20111;-72
2022/08/12 11:58:49;;;;;;;3.13;1.77;;;27.30;87.40;;;;;;5053988;28;20559;-72
2022/08/12 12:01:16;;;;;;;4.90;1.75;;;27.70;87.70;;;;;;5062055;28;20037;-73
2022/08/12 12:03:41;;;;;;;5.88;2.00;;;27.90;85.80;;;;;;5061427;28;20109;-72
2022/08/12 12:06:07;;;;;;;4.57;1.63;;;28.00;85.80;;;;;;5060808;28;20064;-72
2022/08/12 12:08:33;;;;;;;4.25;2.08;;;27.80;85.00;;;;;;5059984;28;20032;-72
2022/08/12 12:10:58;;;;;;;4.93;1.77;;;27.30;86.20;;;;;;5063221;28;20040;-72
2022/08/12 12:13:24;;;;;;;2.85;1.50;;;27.90;87.70;;;;;;5056037;28;20043;-72
2022/08/12 12:15:50;;;;;;;3.75;2.08;;;27.40;88.10;;;;;;5053798;28;20032;-71
2022/08/12 12:18:34;;;;;;;6.05;1.60;;;26.90;88.40;;;;;;5056235;28;20037;-72
2022/08/12 12:21:05;;;;;;;4.00;1.75;;;26.70;88.40;;;;;;5059492;28;20087;-72
2022/08/12 12:23:33;;;;;;;4.10;2.13;;;27.00;87.60;;;;;;5060094;28;20540;-72
2022/08/12 12:26:08;;;;;;;2.95;1.40;;;27.10;87.10;;;;;;5051469;28;20032;-73
2022/08/12 12:28:37;;;;;;;3.15;1.45;;;26.60;87.90;;;;;;5060802;28;20028;-72
2022/08/12 12:31:04;;;;;;;3.28;1.55;;;26.40;87.70;;;;;;5063658;28;20036;-72
2022/08/12 12:33:29;;;;;;;3.35;1.60;;;26.40;88.80;;;;;;5059882;28;20033;-71
2022/08/12 12:35:55;;;;;;;3.22;1.40;;;26.40;88.40;;;;;;5057095;28;20090;-73
2022/08/12 12:38:21;;;;;;;3.45;1.55;;;26.40;88.40;;;;;;5065152;28;20115;-73
2022/08/12 12:40:47;;;;;;;3.42;1.90;;;26.30;88.90;;;;;;5039305;28;20621;-73
2022/08/12 12:43:15;;;;;;;4.03;1.55;;;25.90;88.50;;;;;;5064953;28;20036;-73
2022/08/12 12:45:42;;;;;;;3.92;1.80;;;25.90;89.70;;;;;;5058536;28;20047;-73
2022/08/12 12:48:18;;;;;;;5.68;1.60;;;25.70;90.00;;;;;;5062872;28;20033;-72
2022/08/12 12:51:14;;;;;;;4.30;1.90;;;25.20;90.40;;;;;;5056904;28;20033;-72
2022/08/12 12:53:37;;;;;;;4.93;1.52;;;25.30;90.40;;;;;;5067247;28;20028;-72
2022/08/12 12:56:03;;;;;;;3.47;2.00;;;25.50;90.00;;;;;;5065664;28;20119;-72
2022/08/12 12:58:29;;;;;;;4.40;1.75;;;25.30;90.20;;;;;;5055344;28;20035;-72
2022/08/12 13:01:00;;;;;;;3.30;1.67;;;25.30;90.60;;;;;;5064573;28;20028;-73
2022/08/12 13:03:26;;;;;;;4.82;2.22;;;25.20;90.30;;;;;;5067236;28;20027;-72
2022/08/12 13:05:54;;;;;;;4.18;1.95;;;25.20;90.50;;;;;;5067380;28;20036;-73
2022/08/12 13:08:26;;;;;;;4.22;1.80;;;25.20;90.60;;;;;;5063702;28;20090;-72
2022/08/12 13:10:59;;;;;;;4.28;1.73;;;25.00;90.80;;;;;;5061951;28;20115;-72
2022/08/12 13:13:26;;;;;;;3.75;1.70;;;25.10;90.80;;;;;;5059645;28;20029;-72
2022/08/12 13:15:52;;;;;;;3.72;2.13;;;25.00;91.10;;;;;;5054368;28;20028;-72
2022/08/12 13:18:18;;;;;;;4.20;1.65;;;24.90;90.80;;;;;;5057100;28;20033;-72
2022/08/12 13:20:47;;;;;;;5.18;1.35;;;24.90;90.90;;;;;;5061347;28;20163;-72
2022/08/12 13:23:19;;;;;;;5.25;1.70;;;24.80;91.50;;;;;;5061722;28;20094;-72
2022/08/12 13:25:45;;;;;;;4.93;1.60;;;24.80;91.40;;;;;;5061254;28;20037;-72
2022/08/12 13:28:29;;;;;;;3.97;1.70;;;24.90;91.30;;;;;;5061794;28;20064;-72
2022/08/12 13:30:56;;;;;;;3.80;1.45;;;24.40;90.80;;;;;;5056952;28;20024;-73
2022/08/12 13:33:26;;;;;;;6.68;1.90;;;24.50;91.30;;;;;;5055929;28;20115;-75
2022/08/12 13:35:59;;;;;;;3.20;1.45;;;24.50;91.30;;;;;;5062724;28;20036;-75
2022/08/12 13:38:43;;;;;;;3.50;1.73;;;24.50;91.20;;;;;;5069537;28;20024;-76
2022/08/12 13:41:31;;;;;;;5.43;2.08;;;24.50;91.20;;;;;;5073063;28;20043;-76
2022/08/12 13:44:02;;;;;;;3.05;1.67;;;24.50;91.30;;;;;;5073563;28;20599;-76
2022/08/12 13:46:27;;;;;;;6.20;1.80;;;24.40;91.40;;;;;;5070140;28;20023;-76
2022/08/12 13:48:55;;;;;;;3.88;1.65;;;24.40;91.40;;;;;;5071638;28;20074;-76
2022/08/12 13:51:21;;;;;;;4.82;2.38;;;24.40;91.50;;;;;;5046231;28;20115;-74
2022/08/12 13:53:47;;;;;;;4.25;1.90;;;24.40;91.50;;;;;;5046458;28;20478;-76
2022/08/12 13:56:13;;;;;;;3.03;1.35;;;24.30;91.50;;;;;;5064691;28;20041;-75
2022/08/12 13:58:49;;;;;;;6.38;1.98;;;24.30;91.60;;;;;;5049525;28;20039;-75
2022/08/12 14:01:17;;;;;;;5.75;2.33;;;24.20;91.60;;;;;;5046213;28;20368;-75
2022/08/12 14:03:43;;;;;;;5.45;1.95;;;24.20;91.50;;;;;;5032371;28;20028;-75
2022/08/12 14:06:11;;;;;;;6.32;1.80;;;24.20;91.50;;;;;;5052508;28;20086;-76
2022/08/12 14:08:37;;;;;;;2.92;1.70;;;24.20;91.70;;;;;;5057372;28;20044;-74
2022/08/12 14:11:03;;;;;;;3.83;1.65;;;24.10;91.80;;;;;;5048545;28;20029;-74
2022/08/12 14:13:30;;;;;;;5.35;1.85;;;24.20;92.10;;;;;;5054075;28;20024;-73
2022/08/12 14:16:01;;;;;;;4.28;1.98;;;24.00;93.70;;;;;;5050984;28;20039;-73
2022/08/12 14:18:32;;;;;;;5.43;2.03;;;23.80;94.10;;;;;;5058169;28;20467;-73
2022/08/12 14:21:00;;;;;;;4.25;2.00;;;23.80;94.90;;;;;;5061685;28;20041;-73
2022/08/12 14:23:31;;;;;;;3.83;2.08;;;23.70;94.50;;;;;;5053364;28;20035;-73
2022/08/12 14:25:57;;;;;;;4.70;2.33;;;23.40;94.30;;;;;;5046129;28;20021;-73
2022/08/12 14:28:24;;;;;;;6.03;2.00;;;23.30;94.40;;;;;;5052069;28;20152;-73
2022/08/12 14:31:01;;;;;;;4.35;1.60;;;23.30;95.40;;;;;;5051121;28;20600;-73
2022/08/12 14:33:30;;;;;;;5.43;2.22;;;23.20;96.40;;;;;;5057568;28;20033;-73
2022/08/12 14:35:56;;;;;;;5.18;2.13;;;22.90;97.10;;;;;;5050999;28;20028;-73
2022/08/12 14:38:31;;;;;;;4.28;2.17;;;22.90;97.00;;;;;;5059593;28;20037;-73
2022/08/12 14:41:01;;;;;;;5.80;2.10;;;23.00;97.10;;;;;;5047088;28;20056;-73
2022/08/12 14:43:32;;;;;;;5.78;1.80;;;23.10;96.50;;;;;;5050746;28;20032;-73
2022/08/12 14:46:14;;;;;;;6.00;1.98;;;23.00;96.10;;;;;;5051616;28;20090;-72
2022/08/12 14:48:45;;;;;;;5.18;2.30;;;22.90;95.80;;;;;;5057207;28;20077;-74